sensor_id;sensor_type;location;lat;lon;timestamp;temperature;humidity
21772;DHT22;11047;47.904;8.110;2023-01-13T00:02:16;6.30;99.90
21772;DHT22;11047;47.904;8.110;2023-01-13T00:04:43;6.30;99.90
21772;DHT22;11047;47.904;8.110;2023-01-13T00:07:11;6.30;99.90
21772;DHT22;11047;47.904;8.110;2023-01-13T00:09:40;6.30;99.90
21772;DHT22;11047;47.904;8.110;2023-01-13T00:12:07;6.30;99.90
21772;DHT22;11047;47.904;8.110;2023-01-13T00:14:34;6.30;99.90
21772;DHT22;11047;47.904;8.110;2023-01-13T00:17:01;6.40;99.90
21772;DHT22;11047;47.904;8.110;2023-01-13T00:19:28;6.30;99.90
21772;DHT22;11047;47.904;8.110;2023-01-13T00:21:55;6.30;99.90
21772;DHT22;11047;47.904;8.110;2023-01-13T00:24:21;6.30;99.90
21772;DHT22;11047;47.904;8.110;2023-01-13T00:26:50;6.30;99.90
21772;DHT22;11047;47.904;8.110;2023-01-13T00:29:18;6.30;99.90
21772;DHT22;11047;47.904;8.110;2023-01-13T00:31:44;6.30;99.90
21772;DHT22;11047;47.904;8.110;2023-01-13T00:34:11;6.90;99.90
21772;DHT22;11047;47.904;8.110;2023-01-13T00:36:38;6.90;99.90
21772;DHT22;11047;47.904;8.110;2023-01-13T00:39:05;6.30;99.90
21772;DHT22;11047;47.904;8.110;2023-01-13T00:41:32;6.30;99.90
21772;DHT22;11047;47.904;8.110;2023-01-13T00:44:20;7.00;99.90
21772;DHT22;11047;47.904;8.110;2023-01-13T00:46:46;6.90;99.90
21772;DHT22;11047;47.904;8.110;2023-01-13T00:49:13;7.20;99.90
21772;DHT22;11047;47.904;8.110;2023-01-13T00:51:40;6.40;99.90
21772;DHT22;11047;47.904;8.110;2023-01-13T00:54:07;6.50;99.90
21772;DHT22;11047;47.904;8.110;2023-01-13T00:56:34;7.10;99.90
21772;DHT22;11047;47.904;8.110;2023-01-13T00:59:00;6.50;99.90
21772;DHT22;11047;47.904;8.110;2023-01-13T01:01:30;6.50;99.90
21772;DHT22;11047;47.904;8.110;2023-01-13T01:03:57;6.50;99.90
21772;DHT22;11047;47.904;8.110;2023-01-13T01:06:25;6.50;99.90
21772;DHT22;11047;47.904;8.110;2023-01-13T01:08:53;6.60;99.90
21772;DHT22;11047;47.904;8.110;2023-01-13T01:11:21;6.50;99.90
21772;DHT22;11047;47.904;8.110;2023-01-13T01:13:49;6.50;99.90
21772;DHT22;11047;47.904;8.110;2023-01-13T01:16:18;6.50;99.90
21772;DHT22;11047;47.904;8.110;2023-01-13T01:18:48;6.50;99.90
21772;DHT22;11047;47.904;8.110;2023-01-13T01:21:16;6.40;99.90
21772;DHT22;11047;47.904;8.110;2023-01-13T01:23:43;6.40;99.90
21772;DHT22;11047;47.904;8.110;2023-01-13T01:26:12;6.40;99.90
21772;DHT22;11047;47.904;8.110;2023-01-13T01:28:40;6.40;99.90
21772;DHT22;11047;47.904;8.110;2023-01-13T01:31:08;6.40;99.90
21772;DHT22;11047;47.904;8.110;2023-01-13T01:33:36;6.40;99.90
21772;DHT22;11047;47.904;8.110;2023-01-13T01:36:04;6.40;99.90
21772;DHT22;11047;47.904;8.110;2023-01-13T01:38:31;6.30;99.90
21772;DHT22;11047;47.904;8.110;2023-01-13T01:40:58;6.30;99.90
21772;DHT22;11047;47.904;8.110;2023-01-13T01:43:46;6.30;99.90
21772;DHT22;11047;47.904;8.110;2023-01-13T01:46:25;6.20;99.90
21772;DHT22;11047;47.904;8.110;2023-01-13T01:48:53;6.30;99.90
21772;DHT22;11047;47.904;8.110;2023-01-13T01:51:23;6.50;99.90
21772;DHT22;11047;47.904;8.110;2023-01-13T01:53:51;6.20;99.90
21772;DHT22;11047;47.904;8.110;2023-01-13T01:56:20;6.20;99.90
21772;DHT22;11047;47.904;8.110;2023-01-13T01:58:48;6.10;99.90
21772;DHT22;11047;47.904;8.110;2023-01-13T02:01:17;6.10;99.90
21772;DHT22;11047;47.904;8.110;2023-01-13T02:03:47;6.10;99.90
21772;DHT22;11047;47.904;8.110;2023-01-13T02:06:18;6.10;99.90
21772;DHT22;11047;47.904;8.110;2023-01-13T02:08:46;6.10;99.90
21772;DHT22;11047;47.904;8.110;2023-01-13T02:11:26;6.10;99.90
21772;DHT22;11047;47.904;8.110;2023-01-13T02:14:07;6.00;99.90
21772;DHT22;11047;47.904;8.110;2023-01-13T02:16:35;6.00;99.90
21772;DHT22;11047;47.904;8.110;2023-01-13T02:19:09;6.00;99.90
21772;DHT22;11047;47.904;8.110;2023-01-13T02:22:00;6.00;99.90
21772;DHT22;11047;47.904;8.110;2023-01-13T02:27:52;6.00;99.90
21772;DHT22;11047;47.904;8.110;2023-01-13T02:30:31;6.00;99.90
21772;DHT22;11047;47.904;8.110;2023-01-13T02:33:30;6.00;99.90
21772;DHT22;11047;47.904;8.110;2023-01-13T02:36:03;6.00;99.90
21772;DHT22;11047;47.904;8.110;2023-01-13T02:38:36;5.90;99.90
21772;DHT22;11047;47.904;8.110;2023-01-13T02:41:07;5.90;99.90
21772;DHT22;11047;47.904;8.110;2023-01-13T02:43:57;5.80;99.90
21772;DHT22;11047;47.904;8.110;2023-01-13T02:46:46;5.90;99.90
21772;DHT22;11047;47.904;8.110;2023-01-13T02:49:20;5.80;99.90
21772;DHT22;11047;47.904;8.110;2023-01-13T02:51:51;5.80;99.90
21772;DHT22;11047;47.904;8.110;2023-01-13T02:54:24;5.80;99.90
21772;DHT22;11047;47.904;8.110;2023-01-13T02:56:53;5.70;99.90
21772;DHT22;11047;47.904;8.110;2023-01-13T02:59:22;5.70;99.90
21772;DHT22;11047;47.904;8.110;2023-01-13T03:01:54;5.70;99.90
21772;DHT22;11047;47.904;8.110;2023-01-13T03:04:44;5.70;99.90
21772;DHT22;11047;47.904;8.110;2023-01-13T03:07:14;5.70;99.90
21772;DHT22;11047;47.904;8.110;2023-01-13T03:09:53;5.70;99.90
21772;DHT22;11047;47.904;8.110;2023-01-13T03:12:36;5.70;99.90
21772;DHT22;11047;47.904;8.110;2023-01-13T03:15:09;5.70;99.90
21772;DHT22;11047;47.904;8.110;2023-01-13T03:17:43;5.70;99.90
21772;DHT22;11047;47.904;8.110;2023-01-13T03:20:18;5.70;99.90
21772;DHT22;11047;47.904;8.110;2023-01-13T03:22:54;5.80;99.90
21772;DHT22;11047;47.904;8.110;2023-01-13T03:25:27;5.70;99.90
21772;DHT22;11047;47.904;8.110;2023-01-13T03:27:56;5.70;99.90
21772;DHT22;11047;47.904;8.110;2023-01-13T03:30:28;5.70;99.90
21772;DHT22;11047;47.904;8.110;2023-01-13T03:33:03;5.80;99.90
21772;DHT22;11047;47.904;8.110;2023-01-13T03:35:34;5.70;99.90
21772;DHT22;11047;47.904;8.110;2023-01-13T03:38:05;5.70;99.90
21772;DHT22;11047;47.904;8.110;2023-01-13T03:40:35;5.70;99.90
21772;DHT22;11047;47.904;8.110;2023-01-13T03:43:09;5.70;99.90
21772;DHT22;11047;47.904;8.110;2023-01-13T03:46:14;5.70;99.90
21772;DHT22;11047;47.904;8.110;2023-01-13T03:48:45;5.70;99.90
21772;DHT22;11047;47.904;8.110;2023-01-13T03:51:16;5.60;99.90
21772;DHT22;11047;47.904;8.110;2023-01-13T03:53:47;5.80;99.90
21772;DHT22;11047;47.904;8.110;2023-01-13T03:56:18;5.70;99.90
21772;DHT22;11047;47.904;8.110;2023-01-13T03:58:50;5.70;99.90
21772;DHT22;11047;47.904;8.110;2023-01-13T04:01:21;5.80;99.90
21772;DHT22;11047;47.904;8.110;2023-01-13T04:03:56;5.80;99.90
21772;DHT22;11047;47.904;8.110;2023-01-13T04:06:32;5.70;99.90
21772;DHT22;11047;47.904;8.110;2023-01-13T04:09:07;5.70;99.90
21772;DHT22;11047;47.904;8.110;2023-01-13T04:11:41;5.70;99.90
21772;DHT22;11047;47.904;8.110;2023-01-13T04:14:10;5.70;99.90
21772;DHT22;11047;47.904;8.110;2023-01-13T04:16:38;5.90;99.90
21772;DHT22;11047;47.904;8.110;2023-01-13T04:19:06;5.70;99.90
21772;DHT22;11047;47.904;8.110;2023-01-13T04:21:34;5.70;99.90
21772;DHT22;11047;47.904;8.110;2023-01-13T04:24:01;5.60;99.90
21772;DHT22;11047;47.904;8.110;2023-01-13T04:26:28;5.60;99.90
21772;DHT22;11047;47.904;8.110;2023-01-13T04:28:55;5.60;99.90
21772;DHT22;11047;47.904;8.110;2023-01-13T04:31:21;5.50;99.90
21772;DHT22;11047;47.904;8.110;2023-01-13T04:33:48;5.50;99.90
21772;DHT22;11047;47.904;8.110;2023-01-13T04:36:17;5.50;99.90
21772;DHT22;11047;47.904;8.110;2023-01-13T04:38:44;5.50;99.90
21772;DHT22;11047;47.904;8.110;2023-01-13T04:41:10;5.40;99.90
21772;DHT22;11047;47.904;8.110;2023-01-13T04:43:37;5.40;99.90
21772;DHT22;11047;47.904;8.110;2023-01-13T04:46:04;6.00;99.90
21772;DHT22;11047;47.904;8.110;2023-01-13T04:48:31;5.40;99.90
21772;DHT22;11047;47.904;8.110;2023-01-13T04:50:58;5.40;99.90
21772;DHT22;11047;47.904;8.110;2023-01-13T04:53:26;5.50;99.90
21772;DHT22;11047;47.904;8.110;2023-01-13T04:55:53;5.50;99.90
21772;DHT22;11047;47.904;8.110;2023-01-13T04:58:20;5.50;99.90
21772;DHT22;11047;47.904;8.110;2023-01-13T05:00:48;5.50;99.90
21772;DHT22;11047;47.904;8.110;2023-01-13T05:03:15;6.20;99.90
21772;DHT22;11047;47.904;8.110;2023-01-13T05:05:43;6.10;99.90
21772;DHT22;11047;47.904;8.110;2023-01-13T05:08:10;5.40;99.90
21772;DHT22;11047;47.904;8.110;2023-01-13T05:10:38;5.40;99.90
21772;DHT22;11047;47.904;8.110;2023-01-13T05:13:05;5.40;99.90
21772;DHT22;11047;47.904;8.110;2023-01-13T05:15:49;5.30;99.90
21772;DHT22;11047;47.904;8.110;2023-01-13T05:18:42;5.40;99.90
21772;DHT22;11047;47.904;8.110;2023-01-13T05:21:09;5.40;99.90
21772;DHT22;11047;47.904;8.110;2023-01-13T05:23:56;5.50;99.90
21772;DHT22;11047;47.904;8.110;2023-01-13T05:26:41;5.50;99.90
21772;DHT22;11047;47.904;8.110;2023-01-13T05:29:08;5.50;99.90
21772;DHT22;11047;47.904;8.110;2023-01-13T05:31:35;5.50;99.90
21772;DHT22;11047;47.904;8.110;2023-01-13T05:34:02;5.50;99.90
21772;DHT22;11047;47.904;8.110;2023-01-13T05:36:29;6.10;99.90
21772;DHT22;11047;47.904;8.110;2023-01-13T05:38:55;5.60;99.90
21772;DHT22;11047;47.904;8.110;2023-01-13T05:41:22;5.60;99.90
21772;DHT22;11047;47.904;8.110;2023-01-13T05:44:17;5.70;99.90
21772;DHT22;11047;47.904;8.110;2023-01-13T05:46:43;5.70;99.90
21772;DHT22;11047;47.904;8.110;2023-01-13T05:49:10;5.70;99.90
21772;DHT22;11047;47.904;8.110;2023-01-13T05:51:37;5.70;99.90
21772;DHT22;11047;47.904;8.110;2023-01-13T05:54:04;5.70;99.90
21772;DHT22;11047;47.904;8.110;2023-01-13T05:56:31;5.80;99.90
21772;DHT22;11047;47.904;8.110;2023-01-13T05:58:58;5.70;99.90
21772;DHT22;11047;47.904;8.110;2023-01-13T06:01:27;5.70;99.90
21772;DHT22;11047;47.904;8.110;2023-01-13T06:03:53;5.80;99.90
21772;DHT22;11047;47.904;8.110;2023-01-13T06:06:20;5.80;99.90
21772;DHT22;11047;47.904;8.110;2023-01-13T06:08:47;5.80;99.90
21772;DHT22;11047;47.904;8.110;2023-01-13T06:11:14;5.80;99.90
21772;DHT22;11047;47.904;8.110;2023-01-13T06:13:41;5.80;99.90
21772;DHT22;11047;47.904;8.110;2023-01-13T06:16:08;5.80;99.90
21772;DHT22;11047;47.904;8.110;2023-01-13T06:18:37;5.80;99.90
21772;DHT22;11047;47.904;8.110;2023-01-13T06:21:04;5.80;99.90
21772;DHT22;11047;47.904;8.110;2023-01-13T06:23:31;5.90;99.90
21772;DHT22;11047;47.904;8.110;2023-01-13T06:26:07;5.90;99.90
21772;DHT22;11047;47.904;8.110;2023-01-13T06:28:37;5.90;99.90
21772;DHT22;11047;47.904;8.110;2023-01-13T06:31:05;5.90;99.90
21772;DHT22;11047;47.904;8.110;2023-01-13T06:33:38;6.20;99.90
21772;DHT22;11047;47.904;8.110;2023-01-13T06:36:09;5.90;99.90
21772;DHT22;11047;47.904;8.110;2023-01-13T06:38:39;6.00;99.90
21772;DHT22;11047;47.904;8.110;2023-01-13T06:41:07;6.00;99.90
21772;DHT22;11047;47.904;8.110;2023-01-13T06:43:34;6.00;99.90
21772;DHT22;11047;47.904;8.110;2023-01-13T06:46:01;6.00;99.90
21772;DHT22;11047;47.904;8.110;2023-01-13T06:48:30;6.00;99.90
21772;DHT22;11047;47.904;8.110;2023-01-13T06:51:01;6.00;99.90
21772;DHT22;11047;47.904;8.110;2023-01-13T06:53:28;6.10;99.90
21772;DHT22;11047;47.904;8.110;2023-01-13T06:55:54;6.10;99.90
21772;DHT22;11047;47.904;8.110;2023-01-13T06:58:21;6.70;99.90
21772;DHT22;11047;47.904;8.110;2023-01-13T07:00:48;6.10;99.90
21772;DHT22;11047;47.904;8.110;2023-01-13T07:03:16;7.10;99.90
21772;DHT22;11047;47.904;8.110;2023-01-13T07:05:50;6.20;99.90
21772;DHT22;11047;47.904;8.110;2023-01-13T07:08:19;6.20;99.90
21772;DHT22;11047;47.904;8.110;2023-01-13T07:10:45;6.20;99.90
21772;DHT22;11047;47.904;8.110;2023-01-13T07:13:12;6.70;99.90
21772;DHT22;11047;47.904;8.110;2023-01-13T07:15:58;7.00;99.90
21772;DHT22;11047;47.904;8.110;2023-01-13T07:18:27;6.30;99.90
21772;DHT22;11047;47.904;8.110;2023-01-13T07:20:57;6.20;99.90
21772;DHT22;11047;47.904;8.110;2023-01-13T07:23:26;6.20;99.90
21772;DHT22;11047;47.904;8.110;2023-01-13T07:25:54;6.50;99.90
21772;DHT22;11047;47.904;8.110;2023-01-13T07:28:21;7.10;99.90
21772;DHT22;11047;47.904;8.110;2023-01-13T07:30:48;6.60;99.90
21772;DHT22;11047;47.904;8.110;2023-01-13T07:33:14;6.30;99.90
21772;DHT22;11047;47.904;8.110;2023-01-13T07:35:43;6.20;99.90
21772;DHT22;11047;47.904;8.110;2023-01-13T07:38:10;6.30;99.90
21772;DHT22;11047;47.904;8.110;2023-01-13T07:40:38;6.30;99.90
21772;DHT22;11047;47.904;8.110;2023-01-13T07:43:05;6.40;99.90
21772;DHT22;11047;47.904;8.110;2023-01-13T07:45:59;6.30;99.90
21772;DHT22;11047;47.904;8.110;2023-01-13T07:48:27;6.30;99.90
21772;DHT22;11047;47.904;8.110;2023-01-13T07:50:54;6.30;99.90
21772;DHT22;11047;47.904;8.110;2023-01-13T07:53:21;6.30;99.90
21772;DHT22;11047;47.904;8.110;2023-01-13T07:55:54;6.30;99.90
21772;DHT22;11047;47.904;8.110;2023-01-13T07:58:21;6.30;99.90
21772;DHT22;11047;47.904;8.110;2023-01-13T08:00:48;6.30;99.90
21772;DHT22;11047;47.904;8.110;2023-01-13T08:03:28;6.30;99.90
21772;DHT22;11047;47.904;8.110;2023-01-13T08:06:10;6.20;99.90
21772;DHT22;11047;47.904;8.110;2023-01-13T08:08:52;6.30;99.90
21772;DHT22;11047;47.904;8.110;2023-01-13T08:18:14;6.30;99.90
21772;DHT22;11047;47.904;8.110;2023-01-13T08:20:42;5.70;99.90
21772;DHT22;11047;47.904;8.110;2023-01-13T08:23:09;6.20;99.90
21772;DHT22;11047;47.904;8.110;2023-01-13T08:25:36;6.20;99.90
21772;DHT22;11047;47.904;8.110;2023-01-13T08:28:03;6.20;99.90
21772;DHT22;11047;47.904;8.110;2023-01-13T08:30:30;6.20;99.90
21772;DHT22;11047;47.904;8.110;2023-01-13T08:32:57;6.20;99.90
21772;DHT22;11047;47.904;8.110;2023-01-13T08:35:25;6.20;99.90
21772;DHT22;11047;47.904;8.110;2023-01-13T08:37:52;6.20;99.90
21772;DHT22;11047;47.904;8.110;2023-01-13T08:40:19;6.20;99.90
21772;DHT22;11047;47.904;8.110;2023-01-13T08:42:46;6.20;99.90
21772;DHT22;11047;47.904;8.110;2023-01-13T08:45:14;6.20;99.90
21772;DHT22;11047;47.904;8.110;2023-01-13T08:47:41;6.20;99.90
21772;DHT22;11047;47.904;8.110;2023-01-13T08:50:08;6.20;99.90
21772;DHT22;11047;47.904;8.110;2023-01-13T08:52:37;6.30;99.90
21772;DHT22;11047;47.904;8.110;2023-01-13T08:55:04;6.30;99.90
21772;DHT22;11047;47.904;8.110;2023-01-13T08:57:31;6.30;99.90
21772;DHT22;11047;47.904;8.110;2023-01-13T08:59:58;6.40;99.90
21772;DHT22;11047;47.904;8.110;2023-01-13T09:02:25;6.40;99.90
21772;DHT22;11047;47.904;8.110;2023-01-13T09:04:52;6.40;99.90
21772;DHT22;11047;47.904;8.110;2023-01-13T09:07:19;6.30;99.90
21772;DHT22;11047;47.904;8.110;2023-01-13T09:09:48;6.40;99.90
21772;DHT22;11047;47.904;8.110;2023-01-13T09:12:15;6.40;99.90
21772;DHT22;11047;47.904;8.110;2023-01-13T09:15:00;6.40;99.90
21772;DHT22;11047;47.904;8.110;2023-01-13T09:17:27;6.40;99.90
21772;DHT22;11047;47.904;8.110;2023-01-13T09:19:54;6.50;99.90
21772;DHT22;11047;47.904;8.110;2023-01-13T09:22:20;6.50;99.90
21772;DHT22;11047;47.904;8.110;2023-01-13T09:24:53;6.60;99.90
21772;DHT22;11047;47.904;8.110;2023-01-13T09:27:20;6.60;99.90
21772;DHT22;11047;47.904;8.110;2023-01-13T09:29:47;6.60;99.90
21772;DHT22;11047;47.904;8.110;2023-01-13T09:32:14;6.60;99.90
21772;DHT22;11047;47.904;8.110;2023-01-13T09:34:41;7.10;99.90
21772;DHT22;11047;47.904;8.110;2023-01-13T09:37:25;6.70;99.90
21772;DHT22;11047;47.904;8.110;2023-01-13T09:39:53;6.70;99.90
21772;DHT22;11047;47.904;8.110;2023-01-13T09:42:28;6.70;99.90
21772;DHT22;11047;47.904;8.110;2023-01-13T09:45:16;7.10;99.90
21772;DHT22;11047;47.904;8.110;2023-01-13T09:47:50;8.00;99.90
21772;DHT22;11047;47.904;8.110;2023-01-13T09:50:30;8.20;99.90
21772;DHT22;11047;47.904;8.110;2023-01-13T09:53:00;8.40;99.90
21772;DHT22;11047;47.904;8.110;2023-01-13T09:55:32;8.60;99.90
21772;DHT22;11047;47.904;8.110;2023-01-13T09:58:02;8.10;99.90
21772;DHT22;11047;47.904;8.110;2023-01-13T10:00:36;7.90;99.90
21772;DHT22;11047;47.904;8.110;2023-01-13T10:03:25;7.60;99.90
21772;DHT22;11047;47.904;8.110;2023-01-13T10:05:57;7.20;99.90
21772;DHT22;11047;47.904;8.110;2023-01-13T10:08:27;7.00;99.90
21772;DHT22;11047;47.904;8.110;2023-01-13T10:10:57;7.00;99.90
21772;DHT22;11047;47.904;8.110;2023-01-13T10:13:26;6.90;99.90
21772;DHT22;11047;47.904;8.110;2023-01-13T10:16:06;6.80;99.90
21772;DHT22;11047;47.904;8.110;2023-01-13T10:18:41;6.60;99.90
21772;DHT22;11047;47.904;8.110;2023-01-13T10:21:27;6.70;99.90
21772;DHT22;11047;47.904;8.110;2023-01-13T10:24:01;6.50;99.90
21772;DHT22;11047;47.904;8.110;2023-01-13T10:26:42;6.50;99.90
21772;DHT22;11047;47.904;8.110;2023-01-13T10:29:22;6.50;99.90
21772;DHT22;11047;47.904;8.110;2023-01-13T10:31:50;6.50;99.90
21772;DHT22;11047;47.904;8.110;2023-01-13T10:34:17;6.50;99.90
21772;DHT22;11047;47.904;8.110;2023-01-13T10:36:59;6.40;99.90
21772;DHT22;11047;47.904;8.110;2023-01-13T10:39:28;6.30;99.90
21772;DHT22;11047;47.904;8.110;2023-01-13T10:42:11;6.50;99.90
21772;DHT22;11047;47.904;8.110;2023-01-13T10:44:50;6.40;99.90
21772;DHT22;11047;47.904;8.110;2023-01-13T10:47:22;6.70;99.90
21772;DHT22;11047;47.904;8.110;2023-01-13T10:50:00;7.40;99.90
21772;DHT22;11047;47.904;8.110;2023-01-13T10:52:30;7.60;99.90
21772;DHT22;11047;47.904;8.110;2023-01-13T10:54:57;7.90;99.90
21772;DHT22;11047;47.904;8.110;2023-01-13T10:57:27;8.20;99.90
21772;DHT22;11047;47.904;8.110;2023-01-13T10:59:54;8.10;99.90
21772;DHT22;11047;47.904;8.110;2023-01-13T11:02:26;8.00;99.90
21772;DHT22;11047;47.904;8.110;2023-01-13T11:05:07;7.80;99.90
21772;DHT22;11047;47.904;8.110;2023-01-13T11:07:37;7.60;99.90
21772;DHT22;11047;47.904;8.110;2023-01-13T11:10:18;7.40;99.90
21772;DHT22;11047;47.904;8.110;2023-01-13T11:12:52;7.30;99.90
21772;DHT22;11047;47.904;8.110;2023-01-13T11:15:30;7.10;99.90
21772;DHT22;11047;47.904;8.110;2023-01-13T11:18:01;7.50;99.90
21772;DHT22;11047;47.904;8.110;2023-01-13T11:20:31;7.40;99.90
21772;DHT22;11047;47.904;8.110;2023-01-13T11:23:03;7.30;99.90
21772;DHT22;11047;47.904;8.110;2023-01-13T11:25:37;7.30;99.90
21772;DHT22;11047;47.904;8.110;2023-01-13T11:28:19;7.30;99.90
21772;DHT22;11047;47.904;8.110;2023-01-13T11:30:53;7.20;99.90
21772;DHT22;11047;47.904;8.110;2023-01-13T11:33:32;7.10;99.90
21772;DHT22;11047;47.904;8.110;2023-01-13T11:36:06;7.00;99.90
21772;DHT22;11047;47.904;8.110;2023-01-13T11:38:42;7.00;99.90
21772;DHT22;11047;47.904;8.110;2023-01-13T11:41:16;7.30;99.90
21772;DHT22;11047;47.904;8.110;2023-01-13T11:43:52;7.30;99.90
21772;DHT22;11047;47.904;8.110;2023-01-13T11:46:20;7.30;99.90
21772;DHT22;11047;47.904;8.110;2023-01-13T11:48:48;7.10;99.90
21772;DHT22;11047;47.904;8.110;2023-01-13T11:51:27;7.00;99.90
21772;DHT22;11047;47.904;8.110;2023-01-13T11:54:10;7.20;99.90
21772;DHT22;11047;47.904;8.110;2023-01-13T11:57:05;7.40;99.90
21772;DHT22;11047;47.904;8.110;2023-01-13T11:59:56;7.30;99.90
21772;DHT22;11047;47.904;8.110;2023-01-13T12:02:42;7.00;99.90
21772;DHT22;11047;47.904;8.110;2023-01-13T12:05:21;7.00;99.90
21772;DHT22;11047;47.904;8.110;2023-01-13T12:07:57;7.00;99.90
21772;DHT22;11047;47.904;8.110;2023-01-13T12:10:37;7.00;99.90
21772;DHT22;11047;47.904;8.110;2023-01-13T12:13:16;7.00;99.90
21772;DHT22;11047;47.904;8.110;2023-01-13T12:15:58;7.30;99.90
21772;DHT22;11047;47.904;8.110;2023-01-13T12:21:34;7.00;99.90
21772;DHT22;11047;47.904;8.110;2023-01-13T12:24:11;6.80;99.90
21772;DHT22;11047;47.904;8.110;2023-01-13T12:26:43;6.80;99.90
21772;DHT22;11047;47.904;8.110;2023-01-13T12:29:14;6.80;99.90
21772;DHT22;11047;47.904;8.110;2023-01-13T12:31:46;6.70;99.90
21772;DHT22;11047;47.904;8.110;2023-01-13T12:34:33;6.80;99.90
21772;DHT22;11047;47.904;8.110;2023-01-13T12:37:11;6.90;99.90
21772;DHT22;11047;47.904;8.110;2023-01-13T12:39:57;6.80;99.90
21772;DHT22;11047;47.904;8.110;2023-01-13T12:42:32;6.80;99.90
21772;DHT22;11047;47.904;8.110;2023-01-13T12:45:25;6.70;99.90
21772;DHT22;11047;47.904;8.110;2023-01-13T12:47:54;6.80;99.90
21772;DHT22;11047;47.904;8.110;2023-01-13T12:50:40;6.70;99.90
21772;DHT22;11047;47.904;8.110;2023-01-13T12:53:30;6.60;99.90
21772;DHT22;11047;47.904;8.110;2023-01-13T13:02:32;6.20;99.90
21772;DHT22;11047;47.904;8.110;2023-01-13T13:05:36;6.20;99.90
21772;DHT22;11047;47.904;8.110;2023-01-13T13:08:06;6.10;99.90
21772;DHT22;11047;47.904;8.110;2023-01-13T13:10:37;6.00;99.90
21772;DHT22;11047;47.904;8.110;2023-01-13T13:13:06;6.10;99.90
21772;DHT22;11047;47.904;8.110;2023-01-13T13:15:46;6.20;99.90
21772;DHT22;11047;47.904;8.110;2023-01-13T13:18:22;6.20;99.90
21772;DHT22;11047;47.904;8.110;2023-01-13T13:20:55;6.20;99.90
21772;DHT22;11047;47.904;8.110;2023-01-13T13:23:37;6.20;99.90
21772;DHT22;11047;47.904;8.110;2023-01-13T13:26:14;6.40;99.90
21772;DHT22;11047;47.904;8.110;2023-01-13T13:28:51;6.50;99.90
21772;DHT22;11047;47.904;8.110;2023-01-13T13:31:31;6.70;99.90
21772;DHT22;11047;47.904;8.110;2023-01-13T13:34:14;7.10;99.90
21772;DHT22;11047;47.904;8.110;2023-01-13T13:37:08;7.10;99.90
21772;DHT22;11047;47.904;8.110;2023-01-13T13:39:40;6.90;99.90
21772;DHT22;11047;47.904;8.110;2023-01-13T13:42:27;6.80;99.90
21772;DHT22;11047;47.904;8.110;2023-01-13T13:45:15;6.60;99.90
21772;DHT22;11047;47.904;8.110;2023-01-13T13:50:46;6.30;99.90
21772;DHT22;11047;47.904;8.110;2023-01-13T13:53:17;6.20;99.90
21772;DHT22;11047;47.904;8.110;2023-01-13T13:55:52;5.90;99.90
21772;DHT22;11047;47.904;8.110;2023-01-13T13:58:19;5.80;99.90
21772;DHT22;11047;47.904;8.110;2023-01-13T14:00:47;5.50;99.90
21772;DHT22;11047;47.904;8.110;2023-01-13T14:03:21;5.20;99.90
21772;DHT22;11047;47.904;8.110;2023-01-13T14:05:54;5.00;99.90
21772;DHT22;11047;47.904;8.110;2023-01-13T14:08:23;4.70;99.90
21772;DHT22;11047;47.904;8.110;2023-01-13T14:10:50;4.60;99.90
21772;DHT22;11047;47.904;8.110;2023-01-13T14:13:20;4.70;99.90
21772;DHT22;11047;47.904;8.110;2023-01-13T14:15:49;4.60;99.90
21772;DHT22;11047;47.904;8.110;2023-01-13T14:18:21;4.70;99.90
21772;DHT22;11047;47.904;8.110;2023-01-13T14:20:52;4.70;99.90
21772;DHT22;11047;47.904;8.110;2023-01-13T14:23:24;4.80;99.90
21772;DHT22;11047;47.904;8.110;2023-01-13T14:25:52;4.80;99.90
21772;DHT22;11047;47.904;8.110;2023-01-13T14:28:25;4.70;99.90
21772;DHT22;11047;47.904;8.110;2023-01-13T14:30:53;4.60;99.90
21772;DHT22;11047;47.904;8.110;2023-01-13T14:33:26;4.60;99.90
21772;DHT22;11047;47.904;8.110;2023-01-13T14:36:19;4.60;99.90
21772;DHT22;11047;47.904;8.110;2023-01-13T14:38:49;4.60;99.90
21772;DHT22;11047;47.904;8.110;2023-01-13T14:41:43;4.60;99.90
21772;DHT22;11047;47.904;8.110;2023-01-13T14:44:17;4.60;99.90
21772;DHT22;11047;47.904;8.110;2023-01-13T14:46:47;4.70;99.90
21772;DHT22;11047;47.904;8.110;2023-01-13T14:49:21;4.70;99.90
21772;DHT22;11047;47.904;8.110;2023-01-13T14:51:49;4.70;99.90
21772;DHT22;11047;47.904;8.110;2023-01-13T14:54:42;4.70;99.90
21772;DHT22;11047;47.904;8.110;2023-01-13T14:57:24;4.70;99.90
21772;DHT22;11047;47.904;8.110;2023-01-13T15:00:04;4.70;99.90
21772;DHT22;11047;47.904;8.110;2023-01-13T15:02:43;4.60;99.90
21772;DHT22;11047;47.904;8.110;2023-01-13T15:05:28;4.60;99.90
21772;DHT22;11047;47.904;8.110;2023-01-13T15:07:57;4.50;99.90
21772;DHT22;11047;47.904;8.110;2023-01-13T15:10:27;4.50;99.90
21772;DHT22;11047;47.904;8.110;2023-01-13T15:12:57;4.50;99.90
21772;DHT22;11047;47.904;8.110;2023-01-13T15:15:27;4.50;99.90
21772;DHT22;11047;47.904;8.110;2023-01-13T15:17:55;4.50;99.90
21772;DHT22;11047;47.904;8.110;2023-01-13T15:20:23;4.50;99.90
21772;DHT22;11047;47.904;8.110;2023-01-13T15:22:51;4.50;99.90
21772;DHT22;11047;47.904;8.110;2023-01-13T15:25:18;4.50;99.90
21772;DHT22;11047;47.904;8.110;2023-01-13T15:27:45;4.70;99.90
21772;DHT22;11047;47.904;8.110;2023-01-13T15:30:24;4.40;99.90
21772;DHT22;11047;47.904;8.110;2023-01-13T15:32:51;4.30;99.90
21772;DHT22;11047;47.904;8.110;2023-01-13T15:35:20;4.30;99.90
21772;DHT22;11047;47.904;8.110;2023-01-13T15:37:47;4.20;99.90
21772;DHT22;11047;47.904;8.110;2023-01-13T15:43:12;4.20;99.90
21772;DHT22;11047;47.904;8.110;2023-01-13T15:45:58;4.20;99.90
21772;DHT22;11047;47.904;8.110;2023-01-13T15:48:42;4.10;99.90
21772;DHT22;11047;47.904;8.110;2023-01-13T15:51:10;4.10;99.90
21772;DHT22;11047;47.904;8.110;2023-01-13T15:53:37;4.10;99.90
21772;DHT22;11047;47.904;8.110;2023-01-13T15:56:07;4.10;99.90
21772;DHT22;11047;47.904;8.110;2023-01-13T15:58:34;4.10;99.90
21772;DHT22;11047;47.904;8.110;2023-01-13T16:01:03;4.10;99.90
21772;DHT22;11047;47.904;8.110;2023-01-13T16:03:30;4.00;99.90
21772;DHT22;11047;47.904;8.110;2023-01-13T16:05:56;4.00;99.90
21772;DHT22;11047;47.904;8.110;2023-01-13T16:08:23;4.10;99.90
21772;DHT22;11047;47.904;8.110;2023-01-13T16:10:50;4.00;99.90
21772;DHT22;11047;47.904;8.110;2023-01-13T16:13:17;4.10;99.90
21772;DHT22;11047;47.904;8.110;2023-01-13T16:15:46;4.10;99.90
21772;DHT22;11047;47.904;8.110;2023-01-13T16:18:17;4.10;99.90
21772;DHT22;11047;47.904;8.110;2023-01-13T16:20:44;4.10;99.90
21772;DHT22;11047;47.904;8.110;2023-01-13T16:23:11;4.10;99.90
21772;DHT22;11047;47.904;8.110;2023-01-13T16:25:39;4.10;99.90
21772;DHT22;11047;47.904;8.110;2023-01-13T16:28:17;4.10;99.90
21772;DHT22;11047;47.904;8.110;2023-01-13T16:30:44;4.10;99.90
21772;DHT22;11047;47.904;8.110;2023-01-13T16:33:11;4.20;99.90
21772;DHT22;11047;47.904;8.110;2023-01-13T16:35:40;4.20;99.90
21772;DHT22;11047;47.904;8.110;2023-01-13T16:38:12;4.20;99.90
21772;DHT22;11047;47.904;8.110;2023-01-13T16:40:39;4.20;99.90
21772;DHT22;11047;47.904;8.110;2023-01-13T16:43:08;4.30;99.90